sensor_id;sensor_type;location;lat;lon;timestamp;pressure;altitude;pressure_sealevel;temperature;humidity
14393;BME280;7281;42.678;23.372;2022-10-26T00:01:07;95545.59;;;20.56;42.77
14393;BME280;7281;42.678;23.372;2022-10-26T00:03:35;95538.94;;;20.45;42.91
14393;BME280;7281;42.678;23.372;2022-10-26T00:06:24;95530.72;;;20.19;43.38
14393;BME280;7281;42.678;23.372;2022-10-26T00:08:51;95528.09;;;20.85;42.21
14393;BME280;7281;42.678;23.372;2022-10-26T00:11:18;95531.97;;;20.79;42.35
14393;BME280;7281;42.678;23.372;2022-10-26T00:13:46;95533.66;;;20.53;42.36
14393;BME280;7281;42.678;23.372;2022-10-26T00:16:15;95539.91;;;20.49;42.71
14393;BME280;7281;42.678;23.372;2022-10-26T00:18:43;95539.47;;;20.55;42.57
14393;BME280;7281;42.678;23.372;2022-10-26T00:21:10;95530.22;;;20.17;43.30
14393;BME280;7281;42.678;23.372;2022-10-26T00:23:37;95530.72;;;20.05;43.73
14393;BME280;7281;42.678;23.372;2022-10-26T00:26:05;95525.16;;;20.29;43.24
14393;BME280;7281;42.678;23.372;2022-10-26T00:28:32;95531.19;;;20.07;43.68
14393;BME280;7281;42.678;23.372;2022-10-26T00:31:01;95528.44;;;20.26;43.20
14393;BME280;7281;42.678;23.372;2022-10-26T00:33:29;95539.72;;;20.45;42.67
14393;BME280;7281;42.678;23.372;2022-10-26T00:35:56;95538.63;;;20.46;42.34
14393;BME280;7281;42.678;23.372;2022-10-26T00:38:22;95532.28;;;20.20;42.87
14393;BME280;7281;42.678;23.372;2022-10-26T00:40:49;95535.56;;;20.17;43.04
14393;BME280;7281;42.678;23.372;2022-10-26T00:45:50;95529.16;;;20.18;43.21
14393;BME280;7281;42.678;23.372;2022-10-26T00:50:52;95532.44;;;20.37;42.59
14393;BME280;7281;42.678;23.372;2022-10-26T00:53:19;95537.88;;;20.32;42.62
14393;BME280;7281;42.678;23.372;2022-10-26T00:55:49;95526.63;;;20.35;42.34
14393;BME280;7281;42.678;23.372;2022-10-26T00:58:17;95528.47;;;20.48;42.01
14393;BME280;7281;42.678;23.372;2022-10-26T01:00:44;95524.44;;;20.37;42.23
14393;BME280;7281;42.678;23.372;2022-10-26T01:03:11;95529.66;;;20.42;42.36
14393;BME280;7281;42.678;23.372;2022-10-26T01:05:41;95522.91;;;20.58;41.86
14393;BME280;7281;42.678;23.372;2022-10-26T01:08:09;95519.69;;;20.12;42.64
14393;BME280;7281;42.678;23.372;2022-10-26T01:10:37;95518.09;;;20.25;42.63
14393;BME280;7281;42.678;23.372;2022-10-26T01:13:05;95526.03;;;19.62;44.01
14393;BME280;7281;42.678;23.372;2022-10-26T01:15:42;95521.66;;;20.06;43.10
14393;BME280;7281;42.678;23.372;2022-10-26T01:29:57;95518.19;;;20.06;43.00
14393;BME280;7281;42.678;23.372;2022-10-26T01:35:33;95521.22;;;20.13;42.97
14393;BME280;7281;42.678;23.372;2022-10-26T01:38:09;95516.53;;;19.96;43.03
14393;BME280;7281;42.678;23.372;2022-10-26T01:40:46;95513.56;;;20.25;42.64
14393;BME280;7281;42.678;23.372;2022-10-26T01:43:19;95514.50;;;20.29;42.62
14393;BME280;7281;42.678;23.372;2022-10-26T01:45:47;95521.25;;;20.27;42.47
14393;BME280;7281;42.678;23.372;2022-10-26T01:48:17;95505.38;;;20.44;42.12
14393;BME280;7281;42.678;23.372;2022-10-26T01:50:49;95514.91;;;20.36;42.85
14393;BME280;7281;42.678;23.372;2022-10-26T01:53:18;95511.16;;;20.37;42.63
14393;BME280;7281;42.678;23.372;2022-10-26T01:55:51;95507.81;;;20.32;42.75
14393;BME280;7281;42.678;23.372;2022-10-26T02:04:00;95513.50;;;20.39;42.66
14393;BME280;7281;42.678;23.372;2022-10-26T02:07:12;95518.16;;;20.33;42.76
14393;BME280;7281;42.678;23.372;2022-10-26T02:12:20;95518.28;;;19.52;44.27
14393;BME280;7281;42.678;23.372;2022-10-26T02:14:58;95530.59;;;19.34;44.05
14393;BME280;7281;42.678;23.372;2022-10-26T02:20:08;95548.03;;;19.21;44.28
14393;BME280;7281;42.678;23.372;2022-10-26T02:22:43;95544.47;;;19.12;44.34
14393;BME280;7281;42.678;23.372;2022-10-26T02:25:36;95541.53;;;19.00;44.67
14393;BME280;7281;42.678;23.372;2022-10-26T02:28:13;95547.00;;;18.90;44.82
14393;BME280;7281;42.678;23.372;2022-10-26T02:30:42;95549.94;;;18.89;44.90
14393;BME280;7281;42.678;23.372;2022-10-26T02:33:12;95544.44;;;18.85;44.97
14393;BME280;7281;42.678;23.372;2022-10-26T02:35:42;95549.31;;;18.78;44.96
14393;BME280;7281;42.678;23.372;2022-10-26T02:38:12;95550.22;;;18.55;45.42
14393;BME280;7281;42.678;23.372;2022-10-26T02:40:40;95557.94;;;18.70;45.19
14393;BME280;7281;42.678;23.372;2022-10-26T02:43:12;95537.69;;;18.74;44.83
14393;BME280;7281;42.678;23.372;2022-10-26T02:45:48;95553.94;;;18.54;45.15
14393;BME280;7281;42.678;23.372;2022-10-26T02:48:17;95547.16;;;18.48;45.92
14393;BME280;7281;42.678;23.372;2022-10-26T02:50:50;95550.16;;;18.60;45.27
14393;BME280;7281;42.678;23.372;2022-10-26T02:53:29;95549.66;;;18.58;45.16
14393;BME280;7281;42.678;23.372;2022-10-26T02:56:04;95549.16;;;18.56;45.15
14393;BME280;7281;42.678;23.372;2022-10-26T02:58:38;95557.59;;;18.40;45.42
14393;BME280;7281;42.678;23.372;2022-10-26T03:01:06;95552.44;;;18.30;46.03
14393;BME280;7281;42.678;23.372;2022-10-26T03:03:34;95562.19;;;18.34;45.82
14393;BME280;7281;42.678;23.372;2022-10-26T03:06:00;95558.97;;;18.37;45.50
14393;BME280;7281;42.678;23.372;2022-10-26T03:08:27;95559.03;;;17.95;46.41
14393;BME280;7281;42.678;23.372;2022-10-26T03:10:59;95563.19;;;18.01;46.36
14393;BME280;7281;42.678;23.372;2022-10-26T03:13:26;95559.53;;;17.97;46.96
14393;BME280;7281;42.678;23.372;2022-10-26T03:15:56;95567.19;;;18.36;45.91
14393;BME280;7281;42.678;23.372;2022-10-26T03:18:25;95569.88;;;18.17;46.36
14393;BME280;7281;42.678;23.372;2022-10-26T03:20:52;95574.00;;;18.23;46.44
14393;BME280;7281;42.678;23.372;2022-10-26T03:23:19;95573.72;;;18.06;46.23
14393;BME280;7281;42.678;23.372;2022-10-26T03:25:47;95586.91;;;18.11;46.45
14393;BME280;7281;42.678;23.372;2022-10-26T03:28:14;95578.38;;;17.95;46.71
14393;BME280;7281;42.678;23.372;2022-10-26T03:30:41;95574.44;;;18.11;46.62
14393;BME280;7281;42.678;23.372;2022-10-26T03:33:08;95575.72;;;17.72;48.28
14393;BME280;7281;42.678;23.372;2022-10-26T03:35:34;95587.75;;;17.88;48.39
14393;BME280;7281;42.678;23.372;2022-10-26T03:38:01;95580.41;;;18.22;47.96
14393;BME280;7281;42.678;23.372;2022-10-26T03:40:28;95576.69;;;18.42;47.23
14393;BME280;7281;42.678;23.372;2022-10-26T03:42:55;95582.94;;;18.51;47.29
14393;BME280;7281;42.678;23.372;2022-10-26T03:45:21;95581.66;;;18.48;47.71
14393;BME280;7281;42.678;23.372;2022-10-26T03:47:48;95585.28;;;18.34;47.86
14393;BME280;7281;42.678;23.372;2022-10-26T03:50:18;95579.84;;;18.62;47.59
14393;BME280;7281;42.678;23.372;2022-10-26T03:52:46;95573.63;;;18.53;47.60
14393;BME280;7281;42.678;23.372;2022-10-26T03:55:14;95581.81;;;18.89;46.98
14393;BME280;7281;42.678;23.372;2022-10-26T03:57:42;95584.56;;;18.65;47.69
14393;BME280;7281;42.678;23.372;2022-10-26T04:00:11;95583.69;;;18.88;46.94
14393;BME280;7281;42.678;23.372;2022-10-26T04:02:43;95567.69;;;18.75;46.81
14393;BME280;7281;42.678;23.372;2022-10-26T04:05:14;95581.66;;;18.48;47.95
14393;BME280;7281;42.678;23.372;2022-10-26T04:07:42;95583.22;;;18.49;47.47
14393;BME280;7281;42.678;23.372;2022-10-26T04:10:09;95584.28;;;18.30;47.42
14393;BME280;7281;42.678;23.372;2022-10-26T04:12:37;95594.69;;;18.26;47.05
14393;BME280;7281;42.678;23.372;2022-10-26T04:15:05;95598.28;;;18.35;46.37
14393;BME280;7281;42.678;23.372;2022-10-26T04:17:33;95583.88;;;17.80;46.64
14393;BME280;7281;42.678;23.372;2022-10-26T04:19:59;95594.19;;;17.82;46.51
14393;BME280;7281;42.678;23.372;2022-10-26T04:22:27;95599.59;;;17.95;46.37
14393;BME280;7281;42.678;23.372;2022-10-26T04:24:53;95599.22;;;18.02;46.41
14393;BME280;7281;42.678;23.372;2022-10-26T04:27:20;95592.94;;;17.74;46.56
14393;BME280;7281;42.678;23.372;2022-10-26T04:29:47;95590.66;;;17.63;46.71
14393;BME280;7281;42.678;23.372;2022-10-26T04:32:14;95592.44;;;17.49;47.43
14393;BME280;7281;42.678;23.372;2022-10-26T04:34:41;95575.09;;;17.33;47.02
14393;BME280;7281;42.678;23.372;2022-10-26T04:37:08;95611.78;;;17.15;47.89
14393;BME280;7281;42.678;23.372;2022-10-26T04:39:34;95604.91;;;17.43;47.46
14393;BME280;7281;42.678;23.372;2022-10-26T04:42:01;95604.00;;;17.00;47.87
14393;BME280;7281;42.678;23.372;2022-10-26T04:44:28;95607.34;;;17.11;48.20
14393;BME280;7281;42.678;23.372;2022-10-26T04:46:55;95610.53;;;17.37;47.24
14393;BME280;7281;42.678;23.372;2022-10-26T04:49:22;95608.44;;;17.34;47.03
14393;BME280;7281;42.678;23.372;2022-10-26T04:51:49;95609.19;;;17.10;48.14
14393;BME280;7281;42.678;23.372;2022-10-26T04:54:16;95606.50;;;17.44;47.46
14393;BME280;7281;42.678;23.372;2022-10-26T04:56:43;95613.47;;;17.64;47.22
14393;BME280;7281;42.678;23.372;2022-10-26T04:59:09;95613.91;;;17.71;46.59
14393;BME280;7281;42.678;23.372;2022-10-26T05:01:36;95619.22;;;17.13;47.64
14393;BME280;7281;42.678;23.372;2022-10-26T05:04:03;95625.94;;;17.01;48.21
14393;BME280;7281;42.678;23.372;2022-10-26T05:06:31;95628.47;;;16.82;48.26
14393;BME280;7281;42.678;23.372;2022-10-26T05:08:59;95623.81;;;17.03;47.77
14393;BME280;7281;42.678;23.372;2022-10-26T05:11:25;95623.00;;;17.07;48.13
14393;BME280;7281;42.678;23.372;2022-10-26T05:13:52;95629.75;;;17.23;47.00
14393;BME280;7281;42.678;23.372;2022-10-26T05:16:19;95624.69;;;16.93;47.48
14393;BME280;7281;42.678;23.372;2022-10-26T05:18:49;95629.50;;;16.86;48.20
14393;BME280;7281;42.678;23.372;2022-10-26T05:21:16;95631.31;;;17.24;47.16
14393;BME280;7281;42.678;23.372;2022-10-26T05:23:49;95628.25;;;17.12;48.23
14393;BME280;7281;42.678;23.372;2022-10-26T05:26:18;95634.03;;;16.81;49.50
14393;BME280;7281;42.678;23.372;2022-10-26T05:28:45;95633.50;;;16.35;50.60
14393;BME280;7281;42.678;23.372;2022-10-26T05:31:12;95641.53;;;16.25;50.74
14393;BME280;7281;42.678;23.372;2022-10-26T05:33:39;95645.28;;;16.63;49.79
14393;BME280;7281;42.678;23.372;2022-10-26T05:36:06;95648.16;;;16.71;49.56
14393;BME280;7281;42.678;23.372;2022-10-26T05:38:34;95649.19;;;16.75;49.36
14393;BME280;7281;42.678;23.372;2022-10-26T05:41:01;95649.81;;;16.57;50.18
14393;BME280;7281;42.678;23.372;2022-10-26T05:43:28;95653.47;;;16.71;50.28
14393;BME280;7281;42.678;23.372;2022-10-26T05:45:55;95661.50;;;16.90;49.54
14393;BME280;7281;42.678;23.372;2022-10-26T05:48:22;95667.25;;;16.63;50.81
14393;BME280;7281;42.678;23.372;2022-10-26T05:50:49;95657.97;;;17.04;49.35
14393;BME280;7281;42.678;23.372;2022-10-26T05:53:17;95667.69;;;16.80;50.27
14393;BME280;7281;42.678;23.372;2022-10-26T05:55:44;95671.34;;;16.89;49.53
14393;BME280;7281;42.678;23.372;2022-10-26T05:58:12;95674.94;;;17.03;49.37
14393;BME280;7281;42.678;23.372;2022-10-26T06:06:10;95683.50;;;17.58;48.25
14393;BME280;7281;42.678;23.372;2022-10-26T06:08:39;95680.38;;;17.51;48.31
14393;BME280;7281;42.678;23.372;2022-10-26T06:11:06;95682.06;;;17.37;49.10
14393;BME280;7281;42.678;23.372;2022-10-26T06:13:33;95687.91;;;17.34;49.15
14393;BME280;7281;42.678;23.372;2022-10-26T06:32:12;95690.84;;;17.66;48.92
14393;BME280;7281;42.678;23.372;2022-10-26T06:34:43;95691.06;;;17.69;49.23
14393;BME280;7281;42.678;23.372;2022-10-26T06:37:11;95681.16;;;17.80;49.09
14393;BME280;7281;42.678;23.372;2022-10-26T06:39:42;95694.47;;;18.22;48.21
14393;BME280;7281;42.678;23.372;2022-10-26T06:42:10;95693.56;;;18.55;47.43
14393;BME280;7281;42.678;23.372;2022-10-26T06:44:38;95693.47;;;18.42;47.63
14393;BME280;7281;42.678;23.372;2022-10-26T06:47:11;95703.41;;;18.07;48.83
14393;BME280;7281;42.678;23.372;2022-10-26T06:50:00;95701.78;;;17.83;49.87
14393;BME280;7281;42.678;23.372;2022-10-26T06:52:48;95699.44;;;18.52;48.08
14393;BME280;7281;42.678;23.372;2022-10-26T06:55:19;95708.13;;;18.10;49.66
14393;BME280;7281;42.678;23.372;2022-10-26T06:57:48;95706.16;;;18.21;49.27
14393;BME280;7281;42.678;23.372;2022-10-26T07:00:18;95707.00;;;18.82;47.83
14393;BME280;7281;42.678;23.372;2022-10-26T07:02:46;95710.78;;;18.76;47.88
14393;BME280;7281;42.678;23.372;2022-10-26T07:05:16;95698.47;;;17.96;49.81
14393;BME280;7281;42.678;23.372;2022-10-26T07:07:46;95716.50;;;18.46;48.76
14393;BME280;7281;42.678;23.372;2022-10-26T07:10:14;95707.72;;;19.06;47.61
14393;BME280;7281;42.678;23.372;2022-10-26T07:12:41;95707.72;;;19.06;47.42
14393;BME280;7281;42.678;23.372;2022-10-26T07:15:08;95715.94;;;18.49;48.56
14393;BME280;7281;42.678;23.372;2022-10-26T07:17:44;95714.22;;;18.58;49.49
14393;BME280;7281;42.678;23.372;2022-10-26T07:20:11;95709.84;;;19.23;47.74
14393;BME280;7281;42.678;23.372;2022-10-26T07:22:38;95702.03;;;18.94;48.09
14393;BME280;7281;42.678;23.372;2022-10-26T07:25:05;95715.66;;;18.69;49.22
14393;BME280;7281;42.678;23.372;2022-10-26T07:27:33;95713.22;;;19.29;47.41
14393;BME280;7281;42.678;23.372;2022-10-26T07:30:01;95711.84;;;19.12;47.63
14393;BME280;7281;42.678;23.372;2022-10-26T07:32:28;95709.19;;;19.12;48.38
14393;BME280;7281;42.678;23.372;2022-10-26T07:34:55;95707.91;;;19.29;47.69
14393;BME280;7281;42.678;23.372;2022-10-26T07:37:22;95701.44;;;19.35;48.14
14393;BME280;7281;42.678;23.372;2022-10-26T07:39:49;95682.19;;;19.56;47.20
14393;BME280;7281;42.678;23.372;2022-10-26T07:42:16;95688.47;;;19.79;47.35
14393;BME280;7281;42.678;23.372;2022-10-26T07:44:42;95682.13;;;20.34;46.16
14393;BME280;7281;42.678;23.372;2022-10-26T07:47:09;95685.19;;;20.77;44.50
14393;BME280;7281;42.678;23.372;2022-10-26T07:49:36;95679.72;;;20.60;44.35
14393;BME280;7281;42.678;23.372;2022-10-26T07:52:03;95685.81;;;20.60;45.13
14393;BME280;7281;42.678;23.372;2022-10-26T07:54:31;95675.47;;;20.94;43.86
14393;BME280;7281;42.678;23.372;2022-10-26T07:56:58;95675.47;;;20.59;45.22
14393;BME280;7281;42.678;23.372;2022-10-26T07:59:25;95680.91;;;21.25;43.43
14393;BME280;7281;42.678;23.372;2022-10-26T08:01:52;95675.09;;;21.45;43.17
14393;BME280;7281;42.678;23.372;2022-10-26T08:04:19;95666.63;;;21.74;42.58
14393;BME280;7281;42.678;23.372;2022-10-26T08:06:46;95679.94;;;21.96;41.93
14393;BME280;7281;42.678;23.372;2022-10-26T08:09:14;95678.53;;;21.98;42.09
14393;BME280;7281;42.678;23.372;2022-10-26T08:11:41;95678.09;;;22.05;42.17
14393;BME280;7281;42.678;23.372;2022-10-26T08:14:09;95680.03;;;22.61;40.89
14393;BME280;7281;42.678;23.372;2022-10-26T08:16:36;95681.78;;;22.26;41.56
14393;BME280;7281;42.678;23.372;2022-10-26T08:19:06;95673.25;;;22.63;40.42
14393;BME280;7281;42.678;23.372;2022-10-26T08:21:33;95665.94;;;22.38;41.38
14393;BME280;7281;42.678;23.372;2022-10-26T08:24:06;95668.88;;;22.67;40.73
14393;BME280;7281;42.678;23.372;2022-10-26T08:26:32;95669.03;;;22.88;39.78
14393;BME280;7281;42.678;23.372;2022-10-26T08:28:59;95656.22;;;22.42;39.92
14393;BME280;7281;42.678;23.372;2022-10-26T08:31:26;95667.88;;;22.46;40.64
14393;BME280;7281;42.678;23.372;2022-10-26T08:33:53;95667.47;;;23.04;39.59
14393;BME280;7281;42.678;23.372;2022-10-26T08:36:24;95664.78;;;22.78;39.29
14393;BME280;7281;42.678;23.372;2022-10-26T08:38:52;95670.75;;;23.27;38.60
14393;BME280;7281;42.678;23.372;2022-10-26T08:46:45;95663.53;;;23.19;38.28
14393;BME280;7281;42.678;23.372;2022-10-26T08:51:54;95665.38;;;23.69;37.56
14393;BME280;7281;42.678;23.372;2022-10-26T08:54:43;95670.28;;;24.05;36.72
14393;BME280;7281;42.678;23.372;2022-10-26T08:59:53;95652.78;;;23.70;37.11
14393;BME280;7281;42.678;23.372;2022-10-26T09:02:22;95673.78;;;23.34;36.68
14393;BME280;7281;42.678;23.372;2022-10-26T09:04:51;95673.13;;;23.11;37.40
14393;BME280;7281;42.678;23.372;2022-10-26T09:10:18;95663.78;;;23.77;36.84
14393;BME280;7281;42.678;23.372;2022-10-26T09:13:20;95661.03;;;24.61;35.98
14393;BME280;7281;42.678;23.372;2022-10-26T09:22:22;95656.38;;;25.20;35.30
14393;BME280;7281;42.678;23.372;2022-10-26T09:24:58;95652.81;;;25.28;34.85
14393;BME280;7281;42.678;23.372;2022-10-26T09:27:39;95650.59;;;25.30;34.29
14393;BME280;7281;42.678;23.372;2022-10-26T09:30:14;95648.38;;;25.32;33.28
14393;BME280;7281;42.678;23.372;2022-10-26T09:32:45;95649.66;;;25.26;33.85
14393;BME280;7281;42.678;23.372;2022-10-26T09:35:41;95659.50;;;25.87;32.11
14393;BME280;7281;42.678;23.372;2022-10-26T09:38:30;95653.19;;;25.59;32.87
14393;BME280;7281;42.678;23.372;2022-10-26T09:41:03;95653.19;;;25.59;33.09
14393;BME280;7281;42.678;23.372;2022-10-26T09:46:16;95644.88;;;25.52;32.86
14393;BME280;7281;42.678;23.372;2022-10-26T09:49:07;95644.69;;;25.03;34.21
14393;BME280;7281;42.678;23.372;2022-10-26T09:51:38;95651.06;;;25.64;33.54
14393;BME280;7281;42.678;23.372;2022-10-26T09:54:15;95645.63;;;25.85;32.29
14393;BME280;7281;42.678;23.372;2022-10-26T09:56:44;95640.53;;;26.16;31.06
14393;BME280;7281;42.678;23.372;2022-10-26T09:59:14;95641.16;;;25.89;31.88
14393;BME280;7281;42.678;23.372;2022-10-26T10:01:43;95636.56;;;25.12;32.14
14393;BME280;7281;42.678;23.372;2022-10-26T10:07:10;95631.47;;;25.52;32.45
14393;BME280;7281;42.678;23.372;2022-10-26T10:09:38;95619.47;;;25.94;30.95
14393;BME280;7281;42.678;23.372;2022-10-26T10:12:15;95622.16;;;26.30;30.92
14393;BME280;7281;42.678;23.372;2022-10-26T10:14:55;95622.72;;;25.43;30.54
14393;BME280;7281;42.678;23.372;2022-10-26T10:17:23;95625.94;;;25.93;30.76
14393;BME280;7281;42.678;23.372;2022-10-26T10:19:51;95618.94;;;26.13;30.79
14393;BME280;7281;42.678;23.372;2022-10-26T10:22:20;95619.72;;;26.25;30.15
14393;BME280;7281;42.678;23.372;2022-10-26T10:24:58;95612.53;;;26.41;29.93
14393;BME280;7281;42.678;23.372;2022-10-26T10:27:26;95604.69;;;26.24;30.18
14393;BME280;7281;42.678;23.372;2022-10-26T10:29:55;95612.97;;;25.95;30.10
14393;BME280;7281;42.678;23.372;2022-10-26T10:32:30;95611.88;;;26.08;30.38
14393;BME280;7281;42.678;23.372;2022-10-26T10:35:22;95602.59;;;26.06;30.21
14393;BME280;7281;42.678;23.372;2022-10-26T10:37:50;95601.09;;;25.84;30.63
14393;BME280;7281;42.678;23.372;2022-10-26T10:40:20;95588.25;;;26.38;30.08
14393;BME280;7281;42.678;23.372;2022-10-26T10:42:49;95585.47;;;26.10;30.08
14393;BME280;7281;42.678;23.372;2022-10-26T10:45:22;95593.84;;;26.21;30.03
14393;BME280;7281;42.678;23.372;2022-10-26T10:50:55;95597.53;;;25.92;30.53
14393;BME280;7281;42.678;23.372;2022-10-26T10:53:29;95592.47;;;25.78;29.93
14393;BME280;7281;42.678;23.372;2022-10-26T11:01:26;95586.00;;;25.91;29.84
14393;BME280;7281;42.678;23.372;2022-10-26T11:05:18;95582.75;;;25.86;29.64
14393;BME280;7281;42.678;23.372;2022-10-26T11:07:08;95570.13;;;26.23;30.20
14393;BME280;7281;42.678;23.372;2022-10-26T11:09:39;95566.34;;;26.63;29.55
14393;BME280;7281;42.678;23.372;2022-10-26T11:12:16;95572.41;;;26.72;29.50
14393;BME280;7281;42.678;23.372;2022-10-26T11:14:47;95568.13;;;26.83;29.42
14393;BME280;7281;42.678;23.372;2022-10-26T11:18:03;95567.03;;;26.72;29.50
14393;BME280;7281;42.678;23.372;2022-10-26T11:20:37;95559.13;;;26.91;29.53
14393;BME280;7281;42.678;23.372;2022-10-26T11:23:16;95565.16;;;26.88;28.31
14393;BME280;7281;42.678;23.372;2022-10-26T11:25:59;95569.47;;;27.05;28.67
14393;BME280;7281;42.678;23.372;2022-10-26T11:28:38;95559.13;;;26.91;29.23
14393;BME280;7281;42.678;23.372;2022-10-26T11:31:10;95567.03;;;27.00;29.29
14393;BME280;7281;42.678;23.372;2022-10-26T11:36:51;95557.41;;;26.59;28.76
14393;BME280;7281;42.678;23.372;2022-10-26T11:39:27;95564.78;;;27.02;28.49
14393;BME280;7281;42.678;23.372;2022-10-26T11:42:14;95555.50;;;26.99;28.24
14393;BME280;7281;42.678;23.372;2022-10-26T11:44:50;95548.38;;;26.91;28.56
14393;BME280;7281;42.678;23.372;2022-10-26T11:47:42;95557.34;;;27.39;27.50
14393;BME280;7281;42.678;23.372;2022-10-26T11:50:18;95545.72;;;27.66;27.58
14393;BME280;7281;42.678;23.372;2022-10-26T11:52:52;95539.13;;;27.48;27.20
14393;BME280;7281;42.678;23.372;2022-10-26T11:55:21;95541.28;;;28.55;26.49
14393;BME280;7281;42.678;23.372;2022-10-26T11:57:51;95531.97;;;28.90;25.94
14393;BME280;7281;42.678;23.372;2022-10-26T12:00:21;95534.75;;;28.75;26.11
14393;BME280;7281;42.678;23.372;2022-10-26T12:02:57;95527.59;;;28.82;24.78
14393;BME280;7281;42.678;23.372;2022-10-26T12:08:25;95536.22;;;29.30;24.85
14393;BME280;7281;42.678;23.372;2022-10-26T12:13:34;95527.44;;;29.78;24.05
14393;BME280;7281;42.678;23.372;2022-10-26T12:18:43;95532.22;;;30.66;22.21
14393;BME280;7281;42.678;23.372;2022-10-26T12:21:28;95526.44;;;30.98;21.80
14393;BME280;7281;42.678;23.372;2022-10-26T12:23:58;95531.00;;;31.27;21.67
14393;BME280;7281;42.678;23.372;2022-10-26T12:33:59;95528.91;;;31.50;21.11
14393;BME280;7281;42.678;23.372;2022-10-26T12:42:08;95516.22;;;32.62;19.63
14393;BME280;7281;42.678;23.372;2022-10-26T12:44:39;95516.38;;;32.22;19.35
14393;BME280;7281;42.678;23.372;2022-10-26T12:47:08;95516.06;;;32.41;19.56
14393;BME280;7281;42.678;23.372;2022-10-26T13:00:22;95518.09;;;33.69;18.01
14393;BME280;7281;42.678;23.372;2022-10-26T13:08:14;95520.81;;;33.69;18.78
14393;BME280;7281;42.678;23.372;2022-10-26T13:11:12;95527.44;;;32.00;18.75
14393;BME280;7281;42.678;23.372;2022-10-26T13:13:41;95527.66;;;32.31;18.61
14393;BME280;7281;42.678;23.372;2022-10-26T13:16:12;95522.53;;;32.19;18.75
14393;BME280;7281;42.678;23.372;2022-10-26T13:18:44;95523.09;;;32.42;18.75
14393;BME280;7281;42.678;23.372;2022-10-26T13:21:18;95515.75;;;33.50;18.10
14393;BME280;7281;42.678;23.372;2022-10-26T13:23:54;95519.66;;;33.77;17.73
14393;BME280;7281;42.678;23.372;2022-10-26T13:26:31;95520.06;;;33.97;17.13
14393;BME280;7281;42.678;23.372;2022-10-26T13:29:18;95523.25;;;32.81;17.51
14393;BME280;7281;42.678;23.372;2022-10-26T13:34:15;95524.91;;;32.96;17.33
14393;BME280;7281;42.678;23.372;2022-10-26T13:37:22;95537.81;;;31.47;18.07
14393;BME280;7281;42.678;23.372;2022-10-26T13:39:50;95539.72;;;31.46;18.60
14393;BME280;7281;42.678;23.372;2022-10-26T13:42:32;95528.66;;;32.70;17.82
14393;BME280;7281;42.678;23.372;2022-10-26T13:45:07;95537.91;;;32.59;17.30
14393;BME280;7281;42.678;23.372;2022-10-26T13:47:43;95537.38;;;32.39;17.08
14393;BME280;7281;42.678;23.372;2022-10-26T13:50:18;95545.44;;;31.38;17.76
14393;BME280;7281;42.678;23.372;2022-10-26T13:52:48;95543.00;;;30.11;18.42
14393;BME280;7281;42.678;23.372;2022-10-26T14:00:22;95548.81;;;29.03;19.89
14393;BME280;7281;42.678;23.372;2022-10-26T14:02:49;95553.78;;;29.20;19.90
14393;BME280;7281;42.678;23.372;2022-10-26T14:05:17;95557.56;;;28.43;19.53
14393;BME280;7281;42.678;23.372;2022-10-26T14:07:50;95556.78;;;28.42;19.98
14393;BME280;7281;42.678;23.372;2022-10-26T14:10:36;95550.88;;;28.37;20.41
14393;BME280;7281;42.678;23.372;2022-10-26T14:13:08;95557.44;;;28.20;20.61
14393;BME280;7281;42.678;23.372;2022-10-26T14:15:36;95572.41;;;27.28;20.81
14393;BME280;7281;42.678;23.372;2022-10-26T14:18:03;95560.13;;;27.58;20.87
14393;BME280;7281;42.678;23.372;2022-10-26T14:20:31;95557.72;;;27.84;20.31
14393;BME280;7281;42.678;23.372;2022-10-26T14:22:58;95555.09;;;27.72;20.76
14393;BME280;7281;42.678;23.372;2022-10-26T14:25:27;95562.19;;;27.06;21.03
14393;BME280;7281;42.678;23.372;2022-10-26T14:28:29;95569.47;;;26.65;21.90
14393;BME280;7281;42.678;23.372;2022-10-26T14:31:21;95556.19;;;26.96;21.34
14393;BME280;7281;42.678;23.372;2022-10-26T14:33:48;95559.75;;;26.61;22.10
14393;BME280;7281;42.678;23.372;2022-10-26T14:36:15;95557.34;;;26.83;22.23
14393;BME280;7281;42.678;23.372;2022-10-26T14:38:44;95564.00;;;26.62;22.21
14393;BME280;7281;42.678;23.372;2022-10-26T14:41:15;95555.91;;;26.86;22.25
14393;BME280;7281;42.678;23.372;2022-10-26T14:43:43;95562.03;;;26.86;22.48
14393;BME280;7281;42.678;23.372;2022-10-26T14:46:15;95570.56;;;26.37;22.57
14393;BME280;7281;42.678;23.372;2022-10-26T14:48:55;95571.22;;;25.97;23.09
14393;BME280;7281;42.678;23.372;2022-10-26T14:51:29;95570.66;;;25.68;23.63
14393;BME280;7281;42.678;23.372;2022-10-26T14:54:00;95570.22;;;26.02;22.61
14393;BME280;7281;42.678;23.372;2022-10-26T14:59:30;95584.63;;;25.73;23.09
14393;BME280;7281;42.678;23.372;2022-10-26T15:04:41;95583.31;;;26.03;22.83
14393;BME280;7281;42.678;23.372;2022-10-26T15:09:42;95581.31;;;25.88;22.88
14393;BME280;7281;42.678;23.372;2022-10-26T15:12:19;95585.44;;;25.98;22.69
14393;BME280;7281;42.678;23.372;2022-10-26T15:14:48;95575.78;;;25.49;23.52
14393;BME280;7281;42.678;23.372;2022-10-26T15:17:24;95587.53;;;25.68;22.95
14393;BME280;7281;42.678;23.372;2022-10-26T15:20:03;95589.09;;;25.25;23.45
14393;BME280;7281;42.678;23.372;2022-10-26T15:22:31;95596.47;;;24.74;23.90
14393;BME280;7281;42.678;23.372;2022-10-26T15:25:02;95596.09;;;24.84;23.69
14393;BME280;7281;42.678;23.372;2022-10-26T15:27:29;95596.75;;;24.81;23.91
14393;BME280;7281;42.678;23.372;2022-10-26T15:32:46;95598.56;;;24.89;23.52
14393;BME280;7281;42.678;23.372;2022-10-26T15:37:41;95604.88;;;24.64;24.10
14393;BME280;7281;42.678;23.372;2022-10-26T15:40:08;95604.69;;;24.78;24.18
14393;BME280;7281;42.678;23.372;2022-10-26T15:42:38;95616.69;;;24.92;24.17
14393;BME280;7281;42.678;23.372;2022-10-26T15:47:41;95624.94;;;24.58;24.43
14393;BME280;7281;42.678;23.372;2022-10-26T15:50:13;95629.38;;;24.54;24.77
14393;BME280;7281;42.678;23.372;2022-10-26T15:52:41;95635.22;;;24.27;24.62